createdAt,value
2022-11-16T00:00:08.704Z,85.7
2022-11-16T00:03:03.282Z,85.7
2022-11-16T00:06:03.012Z,85.7
2022-11-16T00:09:02.952Z,85.5
2022-11-16T00:12:02.938Z,85.5
2022-11-16T00:15:02.967Z,85.5
2022-11-16T00:18:03.004Z,85.5
2022-11-16T00:21:02.939Z,85.5
2022-11-16T00:24:02.957Z,85.5
2022-11-16T00:27:02.951Z,85.5
2022-11-16T00:30:02.968Z,85.5
2022-11-16T00:33:02.938Z,85.5
2022-11-16T00:36:02.960Z,85.5
2022-11-16T00:39:03.005Z,85.5
2022-11-16T00:42:02.957Z,85.5
2022-11-16T00:45:02.967Z,85.5
2022-11-16T00:48:03.239Z,85.8
2022-11-16T00:51:02.992Z,85.8
2022-11-16T00:54:02.991Z,85.8
2022-11-16T00:57:02.987Z,85.8
2022-11-16T01:00:02.986Z,85.8
2022-11-16T01:03:02.945Z,85.8
2022-11-16T01:06:02.957Z,85.9
2022-11-16T01:09:02.981Z,85.9
2022-11-16T01:12:02.947Z,85.9
2022-11-16T01:15:02.989Z,85.9
2022-11-16T01:18:02.955Z,85.9
2022-11-16T01:21:02.932Z,85.9
2022-11-16T01:24:02.963Z,85.9
2022-11-16T01:27:02.892Z,85.9
2022-11-16T01:30:02.978Z,85.9
2022-11-16T01:33:02.945Z,85.9
2022-11-16T01:36:03.067Z,86.1
2022-11-16T01:39:02.985Z,86.1
2022-11-16T01:42:03.004Z,86.1
2022-11-16T01:45:02.935Z,86.2
2022-11-16T01:48:03.106Z,86.2
2022-11-16T01:51:02.953Z,86.2
2022-11-16T01:54:03.001Z,86.2
2022-11-16T01:57:02.928Z,86.2
2022-11-16T02:00:02.949Z,86.2
2022-11-16T02:03:02.941Z,86.2
2022-11-16T02:06:02.931Z,86.2
2022-11-16T02:09:02.940Z,86.5
2022-11-16T02:12:02.971Z,86.5
2022-11-16T02:15:02.963Z,86.5
2022-11-16T02:18:02.968Z,86.5
2022-11-16T02:21:02.927Z,86.5
2022-11-16T02:24:02.974Z,86.5
2022-11-16T02:27:02.976Z,86.5
2022-11-16T02:30:03.008Z,86.5
2022-11-16T02:33:02.967Z,86.5
2022-11-16T02:36:02.981Z,86.5
2022-11-16T02:39:02.938Z,86.3
2022-11-16T02:42:02.962Z,86.3
2022-11-16T02:45:02.936Z,86.3
2022-11-16T02:48:02.967Z,86.3
2022-11-16T02:51:02.954Z,86.3
2022-11-16T02:54:02.946Z,86.3
2022-11-16T02:57:03.014Z,86.3
2022-11-16T03:00:02.942Z,86.3
2022-11-16T03:03:03.011Z,86.3
2022-11-16T03:06:02.972Z,86.3
2022-11-16T03:09:02.981Z,86.3
2022-11-16T03:12:03.050Z,86.3
2022-11-16T03:15:03.229Z,86.3
2022-11-16T03:18:02.977Z,86.3
2022-11-16T03:21:02.983Z,86.3
2022-11-16T03:24:03.078Z,86.3
2022-11-16T03:27:02.963Z,86.3
2022-11-16T03:30:02.961Z,86.3
2022-11-16T03:33:02.986Z,86.3
2022-11-16T03:36:02.961Z,86.3
2022-11-16T03:39:03.041Z,85.6
2022-11-16T03:42:03.000Z,85.6
2022-11-16T03:45:02.906Z,85.6
2022-11-16T03:48:02.946Z,85.6
2022-11-16T03:51:02.914Z,85.6
2022-11-16T03:54:02.965Z,85.6
2022-11-16T03:57:02.955Z,85.5
2022-11-16T04:00:02.998Z,85.5
2022-11-16T04:03:02.923Z,85.5
2022-11-16T04:06:03.030Z,85.5
2022-11-16T04:09:02.957Z,85.5
2022-11-16T04:12:02.917Z,85.5
2022-11-16T04:15:02.959Z,85.5
2022-11-16T04:18:02.985Z,85.5
2022-11-16T04:21:02.969Z,85.5
2022-11-16T04:24:02.963Z,85.5
2022-11-16T04:27:02.938Z,85.5
2022-11-16T04:30:02.952Z,85.5
2022-11-16T04:33:02.938Z,85.8
2022-11-16T04:36:02.966Z,85.8
2022-11-16T04:39:02.911Z,85.8
2022-11-16T04:42:03.002Z,85.8
2022-11-16T04:45:02.970Z,85.8
2022-11-16T04:48:02.971Z,85.8
2022-11-16T04:51:03.126Z,85.8
2022-11-16T04:54:02.947Z,85.8
2022-11-16T04:57:02.925Z,85.6
2022-11-16T05:00:03.020Z,85.6
2022-11-16T05:03:04.302Z,85.6
2022-11-16T05:06:02.947Z,85.6
2022-11-16T05:09:02.930Z,85.6
2022-11-16T05:12:02.936Z,85.6
2022-11-16T05:15:02.968Z,85.6
2022-11-16T05:18:02.958Z,85.6
2022-11-16T05:21:03.040Z,85.6
2022-11-16T05:24:03.000Z,85.6
2022-11-16T05:27:02.953Z,85.6
2022-11-16T05:30:02.947Z,85.6
2022-11-16T05:33:02.945Z,85.6
2022-11-16T05:36:02.986Z,85.5
2022-11-16T05:39:02.985Z,85.5
2022-11-16T05:42:02.927Z,85.5
2022-11-16T05:45:02.992Z,85.5
2022-11-16T05:48:02.962Z,85.5
2022-11-16T05:51:02.980Z,85.9
2022-11-16T05:54:03.085Z,85.9
2022-11-16T05:57:02.928Z,85.9
2022-11-16T06:00:03.417Z,85.9
2022-11-16T06:03:03.125Z,85.9
2022-11-16T06:06:02.948Z,85.9
2022-11-16T06:09:02.927Z,85.9
2022-11-16T06:12:02.989Z,85.9
2022-11-16T06:15:02.948Z,85.9
2022-11-16T06:18:03.024Z,85.9
2022-11-16T06:21:02.915Z,85.9
2022-11-16T06:24:03.004Z,85.9
2022-11-16T06:27:02.927Z,85.9
2022-11-16T06:30:02.983Z,86.2
2022-11-16T06:33:02.947Z,86.2
2022-11-16T06:36:03.031Z,86.2
2022-11-16T06:39:02.930Z,86.2
2022-11-16T06:42:02.992Z,86.2
2022-11-16T06:45:03.050Z,86.2
2022-11-16T06:48:02.999Z,86.3
2022-11-16T06:51:02.944Z,86.3
2022-11-16T06:54:03.084Z,86.3
2022-11-16T06:57:03.075Z,86.3
2022-11-16T07:00:03.072Z,86.3
2022-11-16T07:03:03.031Z,86.3
2022-11-16T07:06:02.984Z,86.3
2022-11-16T07:09:03.063Z,86.3
2022-11-16T07:12:03.035Z,86.3
2022-11-16T07:15:02.984Z,86.3
2022-11-16T07:18:03.003Z,86.3
2022-11-16T07:21:02.963Z,86.3
2022-11-16T07:24:03.044Z,86.7
2022-11-16T07:27:03.036Z,86.7
2022-11-16T07:30:03.040Z,86.7
2022-11-16T07:33:02.998Z,86.7
2022-11-16T07:36:02.976Z,86.7
2022-11-16T07:39:03.104Z,86.7
2022-11-16T07:42:03.043Z,86.7
2022-11-16T07:45:03.132Z,86.7
2022-11-16T07:48:03.004Z,86.7
2022-11-16T07:51:03.037Z,86.7
2022-11-16T07:54:03.009Z,86.9
2022-11-16T07:57:02.997Z,86.9
2022-11-16T08:00:03.052Z,86.9
2022-11-16T08:03:03.055Z,86.9
2022-11-16T08:06:03.028Z,86.9
2022-11-16T08:09:03.095Z,86.9
2022-11-16T08:12:03.024Z,86.9
2022-11-16T08:15:03.117Z,86.9
2022-11-16T08:18:03.013Z,86.9
2022-11-16T08:21:03.086Z,86.9
2022-11-16T08:24:03.022Z,88
2022-11-16T08:27:03.078Z,88
2022-11-16T08:30:03.094Z,88
2022-11-16T08:33:02.930Z,88
2022-11-16T08:36:03.055Z,88
2022-11-16T08:39:03.088Z,88.5
2022-11-16T08:42:02.994Z,88.5
2022-11-16T08:45:03.000Z,88.5
2022-11-16T08:48:06.745Z,88.5
2022-11-16T08:51:21.803Z,88.5
2022-11-16T08:54:03.026Z,88.5
2022-11-16T08:57:03.031Z,88.5
2022-11-16T09:00:03.015Z,88.5
2022-11-16T09:03:02.979Z,88.5
2022-11-16T09:06:03.031Z,88.5
2022-11-16T09:09:02.999Z,88.5
2022-11-16T09:12:03.034Z,88.5
2022-11-16T09:15:02.982Z,89.3
2022-11-16T09:18:03.025Z,89.3
2022-11-16T09:21:03.181Z,89.3
2022-11-16T09:24:03.056Z,89.3
2022-11-16T09:27:03.007Z,89.3
2022-11-16T09:30:03.155Z,89.3
2022-11-16T09:33:02.945Z,89.3
2022-11-16T09:36:03.054Z,89.3
2022-11-16T09:39:34.003Z,89.3
2022-11-16T09:42:03.032Z,89.3
2022-11-16T09:45:03.002Z,89.3
2022-11-16T09:48:03.048Z,89.3
2022-11-16T09:51:02.977Z,89.3
2022-11-16T09:54:03.000Z,89.3
2022-11-16T09:57:05.596Z,89.3
2022-11-16T10:00:03.186Z,89.3
2022-11-16T10:03:02.977Z,89.3
2022-11-16T10:06:02.993Z,89.3
2022-11-16T10:09:03.064Z,90.4
2022-11-16T10:12:03.069Z,90.4
2022-11-16T10:15:03.025Z,90.4
2022-11-16T10:18:02.983Z,90.4
2022-11-16T10:21:02.989Z,90.4
2022-11-16T10:24:03.146Z,90.8
2022-11-16T10:27:03.086Z,90.8
2022-11-16T10:30:03.776Z,90.8
2022-11-16T10:33:06.771Z,90.8
2022-11-16T10:36:03.091Z,90.8
2022-11-16T10:39:03.017Z,90.8
2022-11-16T10:42:10.251Z,90.8
2022-11-16T10:45:03.005Z,90.8
2022-11-16T10:48:03.001Z,90.8
2022-11-16T10:51:03.307Z,90.8
2022-11-16T10:54:02.985Z,90.8
2022-11-16T10:57:02.986Z,90.8
2022-11-16T11:00:03.161Z,90.8
2022-11-16T11:03:02.981Z,90.6
2022-11-16T11:06:03.462Z,90.6
2022-11-16T11:09:02.962Z,90.6
2022-11-16T11:12:02.989Z,90.6
2022-11-16T11:15:03.044Z,90.6
2022-11-16T11:18:02.968Z,90.6
2022-11-16T11:21:02.982Z,90.6
2022-11-16T11:24:45.798Z,90.6
2022-11-16T11:27:03.020Z,90.6
2022-11-16T11:30:03.130Z,90.6
2022-11-16T11:33:03.044Z,90.6
2022-11-16T11:36:02.982Z,90.6
2022-11-16T11:39:03.341Z,90.6
2022-11-16T11:42:02.947Z,90.6
2022-11-16T11:45:03.042Z,90.6
2022-11-16T11:48:03.256Z,90.6
2022-11-16T11:51:03.035Z,90.6
2022-11-16T11:54:03.042Z,90.9
2022-11-16T11:57:03.016Z,91
2022-11-16T12:00:03.031Z,91
2022-11-16T12:03:03.250Z,91
2022-11-16T12:06:02.991Z,91
2022-11-16T12:09:03.041Z,91
2022-11-16T12:12:03.004Z,91
2022-11-16T12:15:03.117Z,91
2022-11-16T12:18:03.017Z,91
2022-11-16T12:21:03.082Z,91
2022-11-16T12:24:03.041Z,91
2022-11-16T12:27:03.054Z,91
2022-11-16T12:30:03.063Z,91
2022-11-16T12:33:02.965Z,91
2022-11-16T12:36:03.046Z,91
2022-11-16T12:39:03.010Z,91
2022-11-16T12:42:02.983Z,91
2022-11-16T12:45:02.979Z,91.3
2022-11-16T12:48:03.009Z,91.3
2022-11-16T12:51:02.957Z,91.3
2022-11-16T12:54:03.055Z,91.3
2022-11-16T12:57:03.010Z,91.3
2022-11-16T13:00:03.140Z,91.3
2022-11-16T13:03:03.028Z,91.3
2022-11-16T13:06:03.003Z,91.3
2022-11-16T13:09:02.977Z,91.3
2022-11-16T13:15:03.197Z,91.3
2022-11-16T13:18:02.953Z,91.3
2022-11-16T13:33:07.114Z,91.3
2022-11-16T13:36:03.049Z,91.3
2022-11-16T14:06:03.019Z,91.6
2022-11-16T14:09:02.969Z,91.6
2022-11-16T14:12:02.975Z,91.6
2022-11-16T14:15:06.429Z,91.6
2022-11-16T14:18:02.960Z,91.6
2022-11-16T14:21:03.092Z,91.6
2022-11-16T14:24:03.014Z,91.6
2022-11-16T14:27:02.969Z,91.6
2022-11-16T14:30:03.112Z,91.6
2022-11-16T14:33:03.022Z,91.3
2022-11-16T14:36:03.061Z,91.3
2022-11-16T14:39:02.917Z,91.3
2022-11-16T14:42:03.045Z,91.3
2022-11-16T14:45:03.029Z,91.3
2022-11-16T14:48:03.065Z,91.3
2022-11-16T14:51:03.073Z,91.3
2022-11-16T14:54:02.989Z,91.3
2022-11-16T14:57:03.025Z,91.3
2022-11-16T15:00:03.095Z,91.3
2022-11-16T15:03:05.556Z,91.3
2022-11-16T15:06:03.002Z,91.3
2022-11-16T15:09:02.977Z,91.3
2022-11-16T15:12:03.042Z,91.3
2022-11-16T15:15:02.975Z,91.3
2022-11-16T15:18:03.040Z,91.3
2022-11-16T15:21:03.017Z,91.3
2022-11-16T15:24:33.924Z,91.3
2022-11-16T15:27:03.058Z,91.3
2022-11-16T15:30:03.013Z,91.6
2022-11-16T15:33:02.991Z,91.6
2022-11-16T15:36:03.029Z,91.6
2022-11-16T15:39:03.001Z,91.6
2022-11-16T15:42:06.716Z,91.6
2022-11-16T15:45:03.038Z,91.6
2022-11-16T15:48:03.008Z,91.6
2022-11-16T15:51:07.425Z,91.6
2022-11-16T15:54:03.021Z,91.6
2022-11-16T15:57:02.935Z,91.6
2022-11-16T16:00:03.035Z,92
2022-11-16T16:03:02.985Z,92
2022-11-16T16:06:03.059Z,92
2022-11-16T16:09:02.932Z,92
2022-11-16T16:12:02.995Z,92
2022-11-16T16:15:03.062Z,92
2022-11-16T16:18:02.997Z,92
2022-11-16T16:21:03.068Z,92
2022-11-16T16:24:03.003Z,92
2022-11-16T16:27:02.965Z,92.2
2022-11-16T16:30:03.021Z,92.2
2022-11-16T16:33:03.061Z,92.2
2022-11-16T16:36:02.990Z,92.2
2022-11-16T16:39:02.924Z,92.2
2022-11-16T16:42:02.915Z,92.2
2022-11-16T16:45:02.974Z,92.2
2022-11-16T16:48:03.143Z,92.2
2022-11-16T16:51:02.944Z,92.2
2022-11-16T16:54:02.989Z,92.2
2022-11-16T16:57:02.946Z,92.2
2022-11-16T17:00:03.257Z,92.2
2022-11-16T17:03:02.954Z,92.2
2022-11-16T17:06:02.980Z,92.2
2022-11-16T17:09:02.970Z,92.2
2022-11-16T17:12:02.975Z,92.2
2022-11-16T17:15:02.986Z,92.2
2022-11-16T17:18:02.947Z,92.2
2022-11-16T17:21:02.988Z,92.2
2022-11-16T17:24:02.984Z,92.7
2022-11-16T17:27:03.045Z,92.7
2022-11-16T17:30:02.975Z,92.7
2022-11-16T17:33:02.957Z,92.7
2022-11-16T17:36:03.007Z,92.7
2022-11-16T17:39:02.909Z,92.7
2022-11-16T17:42:02.957Z,92.7
2022-11-16T17:45:02.924Z,92.7
2022-11-16T17:48:02.943Z,92.7
2022-11-16T17:51:02.973Z,92.7
2022-11-16T17:54:02.989Z,92.7
2022-11-16T17:57:03.111Z,92.7
2022-11-16T18:00:03.009Z,93
2022-11-16T18:03:02.905Z,93
2022-11-16T18:06:02.981Z,93
2022-11-16T18:09:02.974Z,93
2022-11-16T18:12:03.003Z,93
2022-11-16T18:15:31.257Z,93
2022-11-16T18:18:02.981Z,93
2022-11-16T18:21:03.032Z,93
2022-11-16T18:24:02.980Z,93
2022-11-16T18:27:02.940Z,93
2022-11-16T18:30:03.019Z,93
2022-11-16T18:33:02.954Z,93
2022-11-16T18:36:03.031Z,93
2022-11-16T18:39:03.010Z,93
2022-11-16T18:42:03.028Z,93
2022-11-16T18:45:02.993Z,93
2022-11-16T18:48:02.933Z,93
2022-11-16T18:51:02.999Z,93
2022-11-16T18:54:02.937Z,93
2022-11-16T18:57:03.253Z,93
2022-11-16T19:00:03.039Z,93
2022-11-16T19:03:05.797Z,93
2022-11-16T19:06:02.908Z,93
2022-11-16T19:09:02.975Z,93
2022-11-16T19:12:02.966Z,93
2022-11-16T19:15:02.997Z,93
2022-11-16T19:18:24.251Z,92.6
2022-11-16T19:21:02.968Z,92.6
2022-11-16T19:24:02.973Z,92.6
2022-11-16T19:27:02.985Z,92.6
2022-11-16T19:30:03.018Z,92.6
2022-11-16T19:33:02.969Z,92.6
2022-11-16T19:36:02.948Z,92.6
2022-11-16T19:39:02.956Z,92.5
2022-11-16T19:42:03.260Z,92.5
2022-11-16T19:45:02.960Z,92.5
2022-11-16T19:48:03.007Z,92.5
2022-11-16T19:51:02.949Z,92.5
2022-11-16T19:54:03.038Z,92.5
2022-11-16T19:57:02.980Z,92.5
2022-11-16T20:00:02.996Z,92.5
2022-11-16T20:03:02.972Z,92.5
2022-11-16T20:06:03.024Z,92.5
2022-11-16T20:09:03.452Z,92.5
2022-11-16T20:12:03.016Z,92.5
2022-11-16T20:15:02.982Z,92.5
2022-11-16T20:18:03.039Z,91.3
2022-11-16T20:21:02.991Z,91.3
2022-11-16T20:24:09.201Z,91.3
2022-11-16T20:27:03.059Z,91.3
2022-11-16T20:30:11.728Z,91.3
2022-11-16T20:33:02.951Z,91.3
2022-11-16T20:36:03.042Z,91.3
2022-11-16T20:39:02.989Z,91.3
2022-11-16T20:42:03.001Z,91.3
2022-11-16T20:45:02.938Z,91.3
2022-11-16T20:48:03.037Z,91.3
2022-11-16T20:51:02.967Z,91.3
2022-11-16T20:54:02.952Z,91
2022-11-16T20:57:02.958Z,91
2022-11-16T21:00:03.033Z,91
2022-11-16T21:03:02.944Z,91
2022-11-16T21:06:03.009Z,91
2022-11-16T21:09:03.085Z,90.6
2022-11-16T21:12:03.003Z,90.6
2022-11-16T21:15:02.987Z,90.6
2022-11-16T21:18:02.918Z,90.6
2022-11-16T21:21:02.963Z,90.6
2022-11-16T21:24:02.955Z,90.6
2022-11-16T21:27:02.927Z,90.6
2022-11-16T21:30:02.981Z,90.6
2022-11-16T21:33:03.000Z,90.6
2022-11-16T21:36:02.940Z,90.6
2022-11-16T21:39:02.935Z,90.6
2022-11-16T21:42:03.036Z,90.2
2022-11-16T21:45:03.204Z,90.2
2022-11-16T21:48:02.956Z,90.2
2022-11-16T21:51:02.981Z,90.2
2022-11-16T21:54:02.948Z,90.2
2022-11-16T21:57:02.996Z,90.2
2022-11-16T22:00:03.037Z,90.2
2022-11-16T22:03:02.931Z,90.1
2022-11-16T22:06:06.100Z,90.1
2022-11-16T22:09:03.056Z,90.1
2022-11-16T22:12:07.723Z,90.1
2022-11-16T22:15:02.993Z,90.1
2022-11-16T22:18:03.259Z,90.1
2022-11-16T22:21:02.957Z,90.1
2022-11-16T22:24:03.066Z,90.1
2022-11-16T22:27:03.053Z,90.1
2022-11-16T22:30:02.988Z,90.1
2022-11-16T22:33:02.998Z,89.8
2022-11-16T22:36:02.994Z,89.8
2022-11-16T22:39:02.964Z,89.8
2022-11-16T22:42:02.980Z,89.8
2022-11-16T22:45:02.943Z,89.8
2022-11-16T22:48:02.996Z,89.8
2022-11-16T22:51:02.959Z,89.8
2022-11-16T22:54:02.922Z,89.8
2022-11-16T22:57:02.953Z,89.8
2022-11-16T23:00:03.341Z,89.8
2022-11-16T23:03:03.113Z,89.8
2022-11-16T23:06:02.952Z,89.1
2022-11-16T23:09:02.999Z,89.1
2022-11-16T23:12:02.971Z,89.1
2022-11-16T23:15:03.273Z,89.1
2022-11-16T23:18:02.955Z,89.1
2022-11-16T23:21:02.982Z,89.1
2022-11-16T23:24:02.978Z,89.1
2022-11-16T23:27:02.939Z,89.1
2022-11-16T23:30:05.429Z,89.1
2022-11-16T23:33:02.975Z,89.1
2022-11-16T23:36:02.997Z,88.9
2022-11-16T23:39:02.932Z,88.9
2022-11-16T23:42:02.941Z,88.9
2022-11-16T23:45:02.968Z,88.9
2022-11-16T23:48:03.014Z,88.9
2022-11-16T23:51:02.913Z,88.9
2022-11-16T23:54:03.011Z,88.8
2022-11-16T23:57:02.962Z,88.8
